Time;durP1;ratioP1;P1;durP2;ratioP2;P2;SDS_P1;SDS_P2;PMS_P1;PMS_P2;Temp;Humidity;BMP_temperature;BMP_pressure;BME280_temperature;BME280_humidity;BME280_pressure;Samples;Min_cycle;Max_cycle;Signal;HPM_P1;HPM_P2
2022/12/24 00:00:56;;;;;;;7.53;2.83;;;13.70;99.90;;;;;;929471;151;28639;-78
2022/12/24 00:03:22;;;;;;;6.67;2.47;;;13.70;99.90;;;;;;928049;151;27358;-78
2022/12/24 00:05:49;;;;;;;6.30;2.33;;;13.80;99.90;;;;;;913728;154;27939;-78
2022/12/24 00:08:15;;;;;;;4.80;2.00;;;13.80;99.90;;;;;;928985;151;27323;-78
2022/12/24 00:10:42;;;;;;;7.65;2.40;;;13.90;99.90;;;;;;913433;154;27407;-78
2022/12/24 00:13:08;;;;;;;4.95;2.02;;;13.90;99.90;;;;;;928648;151;27439;-78
2022/12/24 00:15:35;;;;;;;6.70;2.67;;;13.90;99.90;;;;;;911592;154;27462;-78
2022/12/24 00:18:02;;;;;;;7.37;2.50;;;13.90;99.90;;;;;;910547;154;27360;-78
2022/12/24 00:20:28;;;;;;;6.13;2.00;;;13.90;99.90;;;;;;928850;151;27272;-78
2022/12/24 00:22:55;;;;;;;6.72;2.62;;;13.90;99.90;;;;;;929115;151;27467;-78
2022/12/24 00:25:21;;;;;;;5.83;2.22;;;13.90;99.90;;;;;;928491;151;27487;-78
2022/12/24 00:27:48;;;;;;;7.10;1.75;;;13.90;99.90;;;;;;928511;151;27306;-78
2022/12/24 00:30:14;;;;;;;7.70;2.55;;;13.90;99.90;;;;;;912960;154;27401;-78
2022/12/24 00:32:41;;;;;;;4.63;2.43;;;13.80;99.90;;;;;;928051;151;27401;-78
2022/12/24 00:35:08;;;;;;;7.10;2.80;;;13.70;99.90;;;;;;922083;152;27359;-78
2022/12/24 00:37:34;;;;;;;5.37;2.47;;;13.70;99.90;;;;;;912707;154;27890;-78
2022/12/24 00:40:01;;;;;;;5.58;2.72;;;13.70;99.90;;;;;;928266;151;27275;-78
2022/12/24 00:42:27;;;;;;;5.53;2.20;;;13.60;99.90;;;;;;912149;153;27309;-78
2022/12/24 00:44:54;;;;;;;6.12;1.75;;;13.60;99.90;;;;;;912255;154;27470;-78
2022/12/24 00:47:21;;;;;;;5.90;1.95;;;13.50;99.90;;;;;;912554;153;27409;-78
2022/12/24 00:49:47;;;;;;;3.72;1.90;;;13.50;99.90;;;;;;929900;150;27444;-78
2022/12/24 00:52:14;;;;;;;5.27;2.27;;;13.50;99.90;;;;;;929364;150;27300;-78
2022/12/24 00:54:40;;;;;;;5.97;2.62;;;13.50;99.90;;;;;;929271;150;27403;-78
2022/12/24 00:57:07;;;;;;;6.90;2.10;;;13.50;99.90;;;;;;930103;150;27316;-78
2022/12/24 00:59:34;;;;;;;9.20;2.53;;;13.50;99.90;;;;;;929337;150;27338;-78
2022/12/24 01:02:00;;;;;;;6.62;2.27;;;13.50;99.90;;;;;;911869;153;27387;-78
2022/12/24 01:07:11;;;;;;;8.23;2.00;;;13.50;99.90;;;;;;930386;150;27416;-79
2022/12/24 01:09:38;;;;;;;6.58;1.98;;;13.50;99.90;;;;;;930226;151;27328;-78
2022/12/24 01:12:04;;;;;;;5.03;2.30;;;13.50;99.90;;;;;;928846;150;27363;-78
2022/12/24 01:14:31;;;;;;;4.85;1.75;;;13.40;99.90;;;;;;929821;150;27482;-78
2022/12/24 01:16:58;;;;;;;6.20;2.10;;;13.50;99.90;;;;;;912040;153;27403;-78
2022/12/24 01:19:24;;;;;;;8.15;2.27;;;13.50;99.90;;;;;;931634;150;27444;-78
2022/12/24 01:21:51;;;;;;;5.20;1.70;;;13.50;99.90;;;;;;931107;151;27419;-78
2022/12/24 01:24:17;;;;;;;7.63;1.90;;;13.50;99.90;;;;;;929824;150;27387;-78
2022/12/24 01:26:44;;;;;;;5.47;2.87;;;13.50;99.90;;;;;;930627;150;27495;-78
2022/12/24 01:29:11;;;;;;;4.40;2.00;;;13.50;99.90;;;;;;929772;150;27269;-77
2022/12/24 01:31:37;;;;;;;8.18;1.57;;;13.60;99.90;;;;;;929884;151;27461;-77
2022/12/24 01:34:04;;;;;;;4.62;1.80;;;13.60;99.90;;;;;;930542;151;27350;-77
2022/12/24 01:36:30;;;;;;;4.10;2.13;;;13.60;99.90;;;;;;931109;151;27364;-77
2022/12/24 01:38:57;;;;;;;6.12;2.10;;;13.60;99.90;;;;;;930337;151;27474;-78
2022/12/24 01:44:17;;;;;;;7.28;1.82;;;13.70;99.90;;;;;;929297;151;27414;-78
2022/12/24 01:46:44;;;;;;;3.53;2.00;;;13.70;99.90;;;;;;929665;151;27366;-78
2022/12/24 01:49:10;;;;;;;7.40;2.12;;;13.70;99.90;;;;;;928746;151;27476;-78
2022/12/24 01:51:39;;;;;;;5.57;1.87;;;13.70;99.90;;;;;;930499;151;27374;-78
2022/12/24 01:54:06;;;;;;;7.87;2.33;;;13.70;99.90;;;;;;930867;151;27427;-78
2022/12/24 01:56:33;;;;;;;4.10;1.67;;;13.70;99.90;;;;;;896975;156;27385;-78
2022/12/24 01:59:05;;;;;;;7.50;2.00;;;13.70;99.90;;;;;;896971;157;27398;-78
2022/12/24 02:01:32;;;;;;;5.92;2.00;;;13.70;99.90;;;;;;896944;157;27369;-78
2022/12/24 02:03:59;;;;;;;6.10;2.10;;;13.70;99.90;;;;;;897439;156;27426;-78
2022/12/24 02:06:25;;;;;;;4.97;1.80;;;13.70;99.90;;;;;;931264;151;28456;-78
2022/12/24 02:08:52;;;;;;;4.37;2.03;;;13.70;99.90;;;;;;930132;150;27412;-78
2022/12/24 02:11:18;;;;;;;6.30;1.87;;;13.60;99.90;;;;;;930844;151;27363;-78
2022/12/24 02:13:51;;;;;;;5.10;1.82;;;13.60;99.90;;;;;;929665;151;27322;-78
2022/12/24 02:16:26;;;;;;;5.27;2.03;;;13.70;99.90;;;;;;930672;151;27349;-78
2022/12/24 02:18:58;;;;;;;4.70;2.20;;;13.60;99.90;;;;;;929107;151;27455;-78
2022/12/24 02:21:30;;;;;;;6.55;2.30;;;13.70;99.90;;;;;;930642;151;27368;-78
2022/12/24 02:23:59;;;;;;;5.83;2.12;;;13.60;99.90;;;;;;929057;151;27386;-78
2022/12/24 02:26:56;;;;;;;6.05;2.50;;;13.70;99.90;;;;;;930673;151;27323;-78
2022/12/24 02:30:00;;;;;;;12.47;3.20;;;13.70;99.90;;;;;;930020;151;27341;-78
2022/12/24 02:32:39;;;;;;;8.08;1.95;;;13.70;99.90;;;;;;930443;151;27369;-78
2022/12/24 02:35:08;;;;;;;4.92;1.65;;;13.70;99.90;;;;;;929075;151;27860;-78
2022/12/24 02:37:34;;;;;;;6.22;2.20;;;13.70;99.90;;;;;;930431;151;27331;-78
2022/12/24 02:40:01;;;;;;;7.40;2.10;;;13.70;99.90;;;;;;930525;151;27364;-78
2022/12/24 02:42:28;;;;;;;9.13;1.60;;;13.70;99.90;;;;;;929420;151;27426;-78
2022/12/24 02:44:54;;;;;;;4.97;1.63;;;13.70;99.90;;;;;;930259;151;27425;-78
2022/12/24 02:47:21;;;;;;;5.28;1.60;;;13.70;99.90;;;;;;929959;151;27425;-78
2022/12/24 02:49:47;;;;;;;7.75;2.08;;;13.80;99.90;;;;;;910118;155;27330;-78
2022/12/24 02:52:26;;;;;;;8.78;2.10;;;13.70;99.90;;;;;;914163;154;27413;-78
2022/12/24 02:54:53;;;;;;;8.60;2.22;;;13.70;99.90;;;;;;929025;151;27375;-78
2022/12/24 02:57:19;;;;;;;6.17;2.05;;;13.80;99.90;;;;;;929197;151;27368;-78
2022/12/24 03:00:04;;;;;;;4.42;2.10;;;13.80;99.90;;;;;;928339;151;27319;-78
2022/12/24 03:02:54;;;;;;;7.05;2.00;;;13.80;99.90;;;;;;928505;151;27383;-79
2022/12/24 03:05:30;;;;;;;3.58;1.92;;;13.80;99.90;;;;;;928619;151;27248;-77
2022/12/24 03:08:02;;;;;;;4.97;1.60;;;13.80;99.90;;;;;;910235;155;27465;-77
2022/12/24 03:10:43;;;;;;;9.20;2.33;;;13.80;99.90;;;;;;914061;154;27358;-77
2022/12/24 03:13:10;;;;;;;5.87;2.30;;;13.80;99.90;;;;;;909735;154;27319;-77
2022/12/24 03:15:36;;;;;;;5.08;2.12;;;13.80;99.90;;;;;;910348;154;27377;-76
2022/12/24 03:18:03;;;;;;;6.42;2.33;;;13.90;99.90;;;;;;910429;154;27489;-75
2022/12/24 03:20:32;;;;;;;7.70;2.17;;;13.90;99.90;;;;;;909749;154;27379;-75
2022/12/24 03:22:59;;;;;;;5.58;2.00;;;13.90;99.90;;;;;;909812;154;27448;-75
2022/12/24 03:25:25;;;;;;;9.20;2.97;;;13.90;99.90;;;;;;910267;154;27414;-77
2022/12/24 03:27:52;;;;;;;5.62;2.05;;;13.90;99.90;;;;;;910680;154;27339;-77
2022/12/24 03:30:18;;;;;;;8.58;2.50;;;13.90;99.90;;;;;;917839;154;27368;-76
2022/12/24 03:32:45;;;;;;;7.33;2.02;;;13.80;99.90;;;;;;910386;154;28446;-77
2022/12/24 03:35:12;;;;;;;4.62;2.10;;;13.80;99.90;;;;;;910724;154;27307;-77
2022/12/24 03:37:38;;;;;;;3.85;1.62;;;13.90;99.90;;;;;;910560;154;27313;-77
2022/12/24 03:40:06;;;;;;;9.05;2.75;;;13.80;99.90;;;;;;910443;154;27319;-76
2022/12/24 03:42:33;;;;;;;7.35;2.60;;;13.80;99.90;;;;;;911725;154;27406;-77
2022/12/24 03:45:00;;;;;;;3.75;1.80;;;13.90;99.90;;;;;;910493;154;27282;-77
2022/12/24 03:47:26;;;;;;;6.05;2.00;;;13.80;99.90;;;;;;909580;154;27470;-77
2022/12/24 03:49:53;;;;;;;9.58;2.25;;;13.80;99.90;;;;;;928911;151;27793;-76
2022/12/24 03:52:19;;;;;;;7.83;2.83;;;13.80;99.90;;;;;;929796;150;27304;-77
2022/12/24 03:54:46;;;;;;;5.73;2.00;;;13.80;99.90;;;;;;914851;154;27449;-76
2022/12/24 03:57:13;;;;;;;7.50;2.30;;;13.80;99.90;;;;;;914660;154;27447;-76
2022/12/24 03:59:39;;;;;;;6.60;2.10;;;13.80;99.90;;;;;;914366;154;27373;-77
2022/12/24 04:02:06;;;;;;;6.20;2.03;;;13.70;99.90;;;;;;915549;154;27394;-77
2022/12/24 04:04:35;;;;;;;4.03;1.85;;;13.70;99.90;;;;;;914546;154;27500;-77
2022/12/24 04:06:59;;;;;;;6.17;2.62;;;13.70;99.90;;;;;;914386;154;27415;-78
2022/12/24 04:09:25;;;;;;;5.50;1.77;;;13.80;99.90;;;;;;914048;154;27490;-78
2022/12/24 04:11:52;;;;;;;5.28;1.80;;;13.70;99.90;;;;;;914635;154;27355;-78
2022/12/24 04:14:19;;;;;;;4.35;2.30;;;13.70;99.90;;;;;;914983;154;28393;-78
2022/12/24 04:16:45;;;;;;;7.25;1.95;;;13.70;99.90;;;;;;915904;154;27396;-78
2022/12/24 04:19:12;;;;;;;4.67;2.00;;;13.70;99.90;;;;;;914684;153;27446;-78
2022/12/24 04:21:38;;;;;;;3.87;1.53;;;13.70;99.90;;;;;;915386;153;27472;-78
2022/12/24 04:24:05;;;;;;;6.85;1.92;;;13.70;99.90;;;;;;915663;154;27344;-78
2022/12/24 04:26:32;;;;;;;4.97;2.02;;;13.70;99.90;;;;;;914899;154;27950;-78
2022/12/24 04:28:58;;;;;;;7.53;1.80;;;13.70;99.90;;;;;;914398;154;27482;-78
2022/12/24 04:31:25;;;;;;;6.50;1.55;;;13.70;99.90;;;;;;915131;154;27411;-78
2022/12/24 04:33:52;;;;;;;5.05;1.95;;;13.70;99.90;;;;;;914676;154;27386;-78
2022/12/24 04:36:18;;;;;;;5.23;1.80;;;13.70;99.90;;;;;;916030;154;27311;-77
2022/12/24 04:38:45;;;;;;;6.30;1.87;;;13.70;99.90;;;;;;916121;154;27445;-78
2022/12/24 04:41:11;;;;;;;6.03;2.27;;;13.70;99.90;;;;;;914690;154;27446;-78
2022/12/24 04:43:38;;;;;;;5.78;1.98;;;13.70;99.90;;;;;;930525;150;27460;-77
2022/12/24 04:46:19;;;;;;;6.50;1.62;;;13.70;99.90;;;;;;930034;151;27397;-78
2022/12/24 04:48:46;;;;;;;6.83;2.45;;;13.70;99.90;;;;;;929696;151;27440;-78
2022/12/24 04:51:13;;;;;;;7.35;2.40;;;13.70;99.90;;;;;;932735;151;27401;-77
2022/12/24 04:53:39;;;;;;;6.42;2.10;;;13.70;99.90;;;;;;933132;151;27358;-76
2022/12/24 04:56:14;;;;;;;6.03;2.00;;;13.70;99.90;;;;;;932287;151;27395;-77
2022/12/24 04:58:41;;;;;;;4.97;1.73;;;13.70;99.90;;;;;;931355;151;27346;-78
2022/12/24 05:01:08;;;;;;;7.53;2.13;;;13.70;99.90;;;;;;932557;151;27290;-78
2022/12/24 05:03:34;;;;;;;9.38;1.95;;;13.70;99.90;;;;;;932388;151;27300;-78
2022/12/24 05:06:01;;;;;;;5.45;2.42;;;13.70;99.90;;;;;;933384;151;27460;-78
2022/12/24 05:08:28;;;;;;;8.80;2.58;;;13.70;99.90;;;;;;934397;151;27528;-78
2022/12/24 05:10:57;;;;;;;5.60;2.10;;;13.70;99.90;;;;;;931867;151;27298;-78
2022/12/24 05:13:23;;;;;;;4.57;2.00;;;13.70;99.90;;;;;;932891;151;27427;-78
2022/12/24 05:15:50;;;;;;;5.73;2.03;;;13.70;99.90;;;;;;932378;151;27335;-78
2022/12/24 05:18:16;;;;;;;7.58;2.20;;;13.70;99.90;;;;;;931793;151;27961;-78
2022/12/24 05:20:43;;;;;;;7.15;2.37;;;13.70;99.90;;;;;;932609;151;27465;-78
2022/12/24 05:28:45;;;;;;;8.93;3.13;;;13.70;99.90;;;;;;933212;151;27876;-78
2022/12/24 05:31:11;;;;;;;6.62;2.22;;;13.70;99.90;;;;;;932233;151;27531;-78
2022/12/24 05:33:38;;;;;;;5.87;2.08;;;13.60;99.90;;;;;;932989;151;27386;-78
2022/12/24 05:36:05;;;;;;;6.83;1.98;;;13.70;99.90;;;;;;933475;151;27331;-78
2022/12/24 05:38:31;;;;;;;5.17;1.67;;;13.70;99.90;;;;;;931651;151;27452;-78
2022/12/24 05:40:58;;;;;;;6.45;2.85;;;13.70;99.90;;;;;;932170;151;27304;-78
2022/12/24 05:43:24;;;;;;;4.60;1.80;;;13.70;99.90;;;;;;933189;151;27352;-78
2022/12/24 05:45:51;;;;;;;9.53;2.30;;;13.60;99.90;;;;;;933834;151;27374;-77
2022/12/24 05:48:17;;;;;;;9.23;2.77;;;13.60;99.90;;;;;;932490;151;27392;-78
2022/12/24 05:50:44;;;;;;;7.83;2.17;;;13.60;99.90;;;;;;930015;151;27474;-78
2022/12/24 05:53:11;;;;;;;4.33;1.75;;;13.50;99.90;;;;;;929331;151;27316;-78
2022/12/24 05:55:37;;;;;;;5.33;2.17;;;13.40;99.90;;;;;;929444;151;27410;-78
2022/12/24 05:58:04;;;;;;;9.03;2.10;;;13.40;99.90;;;;;;929362;151;27436;-77
2022/12/24 06:00:30;;;;;;;8.67;2.37;;;13.30;99.90;;;;;;929062;151;27464;-78
2022/12/24 06:02:57;;;;;;;5.97;2.03;;;13.30;99.90;;;;;;930054;151;27343;-78
2022/12/24 06:05:24;;;;;;;8.10;2.80;;;13.20;99.90;;;;;;928914;151;27284;-78
2022/12/24 06:07:50;;;;;;;7.20;1.93;;;13.10;99.90;;;;;;929064;151;27485;-78
2022/12/24 06:10:18;;;;;;;3.70;2.20;;;13.10;99.90;;;;;;928629;150;27368;-78
2022/12/24 06:12:43;;;;;;;9.50;2.50;;;13.10;99.90;;;;;;928786;151;27484;-78
2022/12/24 06:15:10;;;;;;;7.70;2.70;;;13.00;99.90;;;;;;928310;151;27320;-77
2022/12/24 06:17:37;;;;;;;5.63;2.47;;;13.00;99.90;;;;;;930232;151;27329;-78
2022/12/24 06:20:03;;;;;;;10.23;2.53;;;13.00;99.90;;;;;;928965;151;27320;-78
2022/12/24 06:22:30;;;;;;;5.90;2.00;;;13.00;99.90;;;;;;931049;151;27410;-78
2022/12/24 06:24:56;;;;;;;4.92;2.08;;;13.00;99.90;;;;;;928341;151;27383;-78
2022/12/24 06:27:23;;;;;;;9.10;2.98;;;13.10;99.90;;;;;;932220;151;28919;-78
2022/12/24 06:29:49;;;;;;;9.55;2.27;;;13.10;99.90;;;;;;930619;151;27315;-77
2022/12/24 06:32:16;;;;;;;7.92;2.70;;;13.10;99.90;;;;;;929520;151;27815;-78
2022/12/24 06:34:43;;;;;;;6.77;2.50;;;13.10;99.90;;;;;;930742;151;27316;-78
2022/12/24 06:37:17;;;;;;;7.05;2.52;;;13.20;99.90;;;;;;931261;151;27411;-78
2022/12/24 06:39:36;;;;;;;8.40;2.80;;;13.20;99.90;;;;;;929503;151;27455;-78
2022/12/24 06:42:02;;;;;;;6.37;2.83;;;13.30;99.90;;;;;;928305;151;27312;-78
2022/12/24 06:44:29;;;;;;;9.10;2.87;;;13.30;99.90;;;;;;928518;151;27371;-77
2022/12/24 06:46:56;;;;;;;8.43;2.50;;;13.30;99.90;;;;;;929658;151;27340;-78
2022/12/24 06:49:22;;;;;;;5.90;2.53;;;13.40;99.90;;;;;;929823;151;27313;-78
2022/12/24 06:51:49;;;;;;;7.50;2.47;;;13.40;99.90;;;;;;929578;151;27456;-78
2022/12/24 06:54:16;;;;;;;7.65;2.62;;;13.40;99.90;;;;;;929370;151;27432;-78
2022/12/24 06:56:42;;;;;;;10.87;2.43;;;13.50;99.90;;;;;;930285;151;27374;-78
2022/12/24 06:59:09;;;;;;;6.33;2.45;;;13.50;99.90;;;;;;929391;151;27404;-77
2022/12/24 07:01:35;;;;;;;8.90;3.53;;;13.50;99.90;;;;;;928991;151;27416;-78
2022/12/24 07:04:02;;;;;;;9.25;3.30;;;13.50;99.90;;;;;;928945;151;27454;-78
2022/12/24 07:06:28;;;;;;;7.97;2.30;;;13.50;99.90;;;;;;929110;151;28182;-78
2022/12/24 07:08:55;;;;;;;7.40;3.10;;;13.60;99.90;;;;;;928298;151;27356;-79
2022/12/24 07:11:21;;;;;;;11.05;2.65;;;13.60;99.90;;;;;;929729;150;27821;-78
2022/12/24 07:13:48;;;;;;;7.80;2.80;;;13.60;99.90;;;;;;929310;151;27371;-78
2022/12/24 07:16:15;;;;;;;10.68;2.58;;;13.60;99.90;;;;;;930916;151;27392;-78
2022/12/24 07:18:41;;;;;;;9.75;2.90;;;13.60;99.90;;;;;;929936;151;27366;-78
2022/12/24 07:21:08;;;;;;;7.87;2.87;;;13.60;99.90;;;;;;929398;151;27285;-79
2022/12/24 07:23:34;;;;;;;11.40;3.47;;;13.60;99.90;;;;;;928469;151;27343;-78
2022/12/24 07:26:01;;;;;;;7.67;2.75;;;13.60;99.90;;;;;;930181;151;27323;-78
2022/12/24 07:28:28;;;;;;;10.20;2.35;;;13.70;99.90;;;;;;930045;151;27290;-78
2022/12/24 07:30:54;;;;;;;7.05;2.55;;;13.70;99.90;;;;;;929931;151;27481;-79
2022/12/24 07:33:21;;;;;;;7.13;2.80;;;13.70;99.90;;;;;;929343;151;27382;-79
2022/12/24 07:35:48;;;;;;;9.97;2.37;;;13.70;99.90;;;;;;929245;151;27354;-78
2022/12/24 07:38:14;;;;;;;14.80;2.95;;;13.70;99.90;;;;;;930889;151;28014;-78
2022/12/24 07:40:41;;;;;;;9.23;2.92;;;13.70;99.90;;;;;;928663;151;27292;-78
2022/12/24 07:43:07;;;;;;;6.45;2.58;;;13.70;99.90;;;;;;928391;151;27440;-78
2022/12/24 07:45:34;;;;;;;7.65;2.50;;;13.80;99.90;;;;;;929449;151;27457;-78
2022/12/24 07:48:00;;;;;;;11.03;2.75;;;13.70;99.90;;;;;;928122;151;27360;-78
2022/12/24 07:50:27;;;;;;;11.85;3.05;;;13.80;99.90;;;;;;928590;151;27366;-78
2022/12/24 07:52:54;;;;;;;7.90;2.85;;;13.80;99.90;;;;;;929249;151;27324;-78
2022/12/24 07:55:20;;;;;;;8.65;2.55;;;13.80;99.90;;;;;;930922;151;27353;-78
2022/12/24 07:57:47;;;;;;;9.25;3.05;;;13.90;99.90;;;;;;930920;151;27424;-77
2022/12/24 08:00:13;;;;;;;7.33;2.92;;;13.90;99.90;;;;;;928757;151;27389;-76
2022/12/24 08:02:40;;;;;;;10.05;2.55;;;13.90;99.90;;;;;;928986;151;27359;-77
2022/12/24 08:05:06;;;;;;;10.63;4.40;;;13.90;99.90;;;;;;928441;151;27329;-76
2022/12/24 08:07:33;;;;;;;9.73;2.87;;;13.90;99.90;;;;;;928305;151;27425;-78
2022/12/24 08:10:00;;;;;;;8.80;3.00;;;14.00;99.90;;;;;;928786;151;27532;-78
2022/12/24 08:12:26;;;;;;;9.50;2.80;;;14.00;99.90;;;;;;929093;151;28196;-78
2022/12/24 08:14:53;;;;;;;10.38;3.22;;;14.00;99.90;;;;;;929016;151;27403;-78
2022/12/24 08:17:19;;;;;;;10.05;3.30;;;14.00;99.90;;;;;;930288;151;27327;-77
2022/12/24 08:19:46;;;;;;;8.57;3.00;;;14.00;99.90;;;;;;930485;151;27325;-78
2022/12/24 08:22:13;;;;;;;12.30;3.35;;;14.10;99.90;;;;;;930566;151;27393;-78
2022/12/24 08:24:39;;;;;;;10.68;3.25;;;14.10;99.90;;;;;;930472;151;27455;-77
2022/12/24 08:27:06;;;;;;;7.83;3.02;;;14.00;99.90;;;;;;928786;151;27393;-77
2022/12/24 08:29:32;;;;;;;10.10;3.23;;;14.10;99.90;;;;;;930694;151;27313;-78
2022/12/24 08:31:59;;;;;;;7.62;3.12;;;14.10;99.90;;;;;;928871;151;27306;-77
2022/12/24 08:34:27;;;;;;;9.58;3.30;;;14.00;99.90;;;;;;928044;151;27335;-77
2022/12/24 08:36:52;;;;;;;8.93;3.17;;;14.10;99.90;;;;;;929077;151;27395;-80
2022/12/24 08:39:19;;;;;;;10.72;3.25;;;14.10;99.90;;;;;;926812;151;27377;-80
2022/12/24 08:41:45;;;;;;;10.25;3.15;;;14.10;99.90;;;;;;929850;151;27324;-80
2022/12/24 08:44:12;;;;;;;11.77;3.27;;;14.10;99.90;;;;;;931073;151;27367;-80
2022/12/24 08:46:39;;;;;;;9.10;3.55;;;14.10;99.90;;;;;;929430;151;27805;-78
2022/12/24 08:49:05;;;;;;;9.48;3.22;;;14.10;99.90;;;;;;930056;151;27468;-78
2022/12/24 08:51:32;;;;;;;7.33;2.80;;;14.10;99.90;;;;;;927102;151;27427;-77
2022/12/24 08:53:58;;;;;;;10.10;3.20;;;14.20;99.90;;;;;;928783;151;27433;-78
2022/12/24 08:56:25;;;;;;;12.65;3.83;;;14.20;99.90;;;;;;928995;151;27425;-78
2022/12/24 08:58:51;;;;;;;12.87;5.43;;;14.20;99.90;;;;;;929637;151;27340;-78
2022/12/24 09:01:18;;;;;;;14.87;5.28;;;14.20;99.90;;;;;;929143;151;27352;-78
2022/12/24 09:03:45;;;;;;;10.23;3.55;;;14.20;99.90;;;;;;928086;151;27395;-78
2022/12/24 09:06:11;;;;;;;9.23;3.42;;;14.20;99.90;;;;;;929184;151;27393;-78
2022/12/24 09:08:38;;;;;;;10.90;4.20;;;14.20;99.90;;;;;;928397;151;27403;-78
2022/12/24 09:11:13;;;;;;;14.17;3.83;;;14.10;99.90;;;;;;929030;151;27433;-78
2022/12/24 09:13:40;;;;;;;11.57;3.35;;;14.10;99.90;;;;;;929140;151;27369;-78
2022/12/24 09:16:06;;;;;;;14.60;4.60;;;14.00;99.90;;;;;;929712;151;27438;-78
2022/12/24 09:18:33;;;;;;;14.75;5.72;;;13.90;99.90;;;;;;927988;151;27325;-78
2022/12/24 09:21:05;;;;;;;13.83;4.17;;;13.80;99.90;;;;;;929024;151;27330;-78
2022/12/24 09:23:32;;;;;;;12.85;3.67;;;13.70;99.90;;;;;;928385;151;29035;-78
2022/12/24 09:25:58;;;;;;;11.43;3.83;;;13.60;99.90;;;;;;927276;151;27478;-78
2022/12/24 09:28:25;;;;;;;14.40;3.67;;;13.60;99.90;;;;;;930195;151;27902;-78
2022/12/24 09:30:57;;;;;;;13.32;4.00;;;13.60;99.90;;;;;;927858;151;27471;-78
2022/12/24 09:33:23;;;;;;;9.63;3.00;;;13.60;99.90;;;;;;927682;151;27425;-79
2022/12/24 09:35:50;;;;;;;11.78;3.12;;;13.60;99.90;;;;;;928868;151;27372;-78
2022/12/24 09:38:17;;;;;;;11.47;3.83;;;13.60;99.90;;;;;;929330;151;28228;-78
2022/12/24 09:40:43;;;;;;;10.60;3.40;;;13.60;99.90;;;;;;928253;151;27332;-78
2022/12/24 09:43:19;;;;;;;9.80;2.75;;;13.60;99.90;;;;;;928851;151;27738;-78
2022/12/24 09:45:45;;;;;;;11.17;3.70;;;13.70;99.90;;;;;;928330;151;27408;-79
2022/12/24 09:48:15;;;;;;;12.63;3.70;;;13.80;99.90;;;;;;928175;151;27358;-79
2022/12/24 09:50:50;;;;;;;14.80;4.45;;;13.90;99.90;;;;;;928568;151;27464;-79
2022/12/24 09:53:20;;;;;;;10.32;2.92;;;14.00;99.90;;;;;;930651;151;27371;-80
2022/12/24 09:55:49;;;;;;;10.98;3.45;;;14.00;99.90;;;;;;931601;151;27474;-78
2022/12/24 09:58:15;;;;;;;16.37;4.30;;;14.20;99.90;;;;;;931669;151;27461;-78
2022/12/24 10:00:42;;;;;;;9.88;3.60;;;14.20;99.90;;;;;;929995;151;27475;-78
2022/12/24 10:03:15;;;;;;;10.32;3.50;;;14.30;99.90;;;;;;911585;154;27437;-79
2022/12/24 10:05:47;;;;;;;10.08;2.40;;;14.30;99.90;;;;;;913007;153;27385;-78
2022/12/24 10:08:35;;;;;;;11.03;3.10;;;14.40;99.90;;;;;;910458;153;27333;-78
2022/12/24 10:11:26;;;;;;;11.63;3.52;;;14.40;99.90;;;;;;921276;153;27332;-79
2022/12/24 10:14:14;;;;;;;9.53;2.90;;;14.50;99.90;;;;;;921017;153;27927;-79
2022/12/24 10:16:52;;;;;;;10.35;3.50;;;14.50;99.90;;;;;;874690;161;27493;-78
2022/12/24 10:19:24;;;;;;;12.10;3.65;;;14.60;99.90;;;;;;904186;153;27389;-79
2022/12/24 10:22:15;;;;;;;11.03;3.35;;;14.70;99.90;;;;;;915614;153;27333;-78
2022/12/24 10:24:42;;;;;;;14.53;4.25;;;14.80;99.90;;;;;;917335;153;27857;-78
2022/12/24 10:27:13;;;;;;;11.88;3.37;;;14.90;99.90;;;;;;930650;151;27413;-78
2022/12/24 10:29:38;;;;;;;10.45;3.30;;;15.00;99.90;;;;;;931559;151;27386;-77
2022/12/24 10:32:07;;;;;;;12.30;3.30;;;15.00;99.90;;;;;;932774;151;27351;-77
2022/12/24 10:34:39;;;;;;;13.43;3.75;;;15.00;99.90;;;;;;931303;151;27324;-79
2022/12/24 10:37:06;;;;;;;8.98;3.47;;;15.10;99.90;;;;;;931212;151;27863;-79
2022/12/24 10:39:33;;;;;;;8.95;3.25;;;15.00;99.90;;;;;;932148;151;27356;-79
2022/12/24 10:41:59;;;;;;;10.78;3.72;;;15.10;99.90;;;;;;932003;151;28397;-79
2022/12/24 10:44:26;;;;;;;11.90;3.30;;;15.00;99.90;;;;;;932305;151;27350;-77
2022/12/24 10:46:52;;;;;;;8.13;3.00;;;15.10;99.90;;;;;;930243;151;27370;-77
2022/12/24 10:49:19;;;;;;;7.55;3.22;;;15.10;99.90;;;;;;930877;151;27394;-77
2022/12/24 10:52:04;;;;;;;9.93;3.10;;;15.10;99.90;;;;;;931084;151;27731;-78
2022/12/24 10:54:37;;;;;;;12.28;3.20;;;15.20;99.90;;;;;;931618;151;27477;-78
2022/12/24 10:56:57;;;;;;;11.00;3.10;;;15.20;99.90;;;;;;931461;151;27381;-78
2022/12/24 10:59:29;;;;;;;11.53;3.52;;;15.30;99.90;;;;;;929997;151;27665;-79
2022/12/24 11:01:56;;;;;;;13.43;3.62;;;15.40;99.90;;;;;;931261;151;27394;-79
2022/12/24 11:04:23;;;;;;;9.98;3.47;;;15.50;99.90;;;;;;931649;151;27498;-78
2022/12/24 11:07:04;;;;;;;11.75;3.05;;;15.60;99.90;;;;;;930697;151;27409;-78
2022/12/24 11:09:33;;;;;;;9.08;3.10;;;15.80;99.90;;;;;;931414;151;27474;-78
2022/12/24 11:12:00;;;;;;;7.97;3.10;;;15.90;99.90;;;;;;914888;153;27413;-79
2022/12/24 11:14:27;;;;;;;13.43;3.58;;;15.90;99.90;;;;;;916597;153;27393;-78
2022/12/24 11:16:53;;;;;;;8.63;3.40;;;16.00;99.90;;;;;;916387;153;27476;-77
2022/12/24 11:19:23;;;;;;;11.35;3.65;;;16.10;99.90;;;;;;931830;151;27293;-78
2022/12/24 11:21:49;;;;;;;10.65;3.98;;;16.10;99.90;;;;;;927413;151;27738;-78
2022/12/24 11:24:28;;;;;;;7.45;2.83;;;16.10;99.90;;;;;;930951;151;27320;-79
2022/12/24 11:26:54;;;;;;;9.08;2.62;;;16.20;99.90;;;;;;914461;152;27475;-78
2022/12/24 11:29:24;;;;;;;9.48;2.83;;;16.20;99.90;;;;;;924712;152;27341;-78
2022/12/24 11:31:51;;;;;;;11.65;4.03;;;16.20;99.90;;;;;;923820;152;27300;-78
2022/12/24 11:34:29;;;;;;;7.85;2.67;;;16.30;99.90;;;;;;924717;152;27397;-78
2022/12/24 11:37:17;;;;;;;11.73;3.33;;;16.30;99.90;;;;;;925548;152;27518;-78
2022/12/24 11:39:46;;;;;;;9.65;2.72;;;16.30;99.90;;;;;;925208;151;27363;-78
2022/12/24 11:42:22;;;;;;;10.88;2.77;;;16.40;99.90;;;;;;922392;152;27485;-79
2022/12/24 11:44:48;;;;;;;4.78;2.58;;;16.40;99.90;;;;;;925937;152;27299;-79
2022/12/24 11:47:15;;;;;;;9.25;3.10;;;16.40;99.90;;;;;;918419;153;27426;-77
2022/12/24 11:49:41;;;;;;;10.93;4.05;;;16.40;99.90;;;;;;931735;151;27402;-79
2022/12/24 11:52:11;;;;;;;12.10;5.22;;;16.50;99.90;;;;;;932074;151;27385;-78
2022/12/24 11:54:40;;;;;;;13.95;5.25;;;16.50;99.90;;;;;;943094;149;27507;-78
2022/12/24 11:57:07;;;;;;;11.30;5.35;;;16.50;99.70;;;;;;944265;149;27477;-78
2022/12/24 11:59:36;;;;;;;9.88;3.52;;;16.50;99.70;;;;;;923142;152;27336;-78
2022/12/24 12:02:30;;;;;;;7.55;2.65;;;16.50;99.60;;;;;;944394;149;27390;-79
2022/12/24 12:04:59;;;;;;;12.40;3.45;;;16.50;99.90;;;;;;934906;150;27340;-79
2022/12/24 12:07:26;;;;;;;8.13;3.08;;;16.60;99.90;;;;;;934367;150;27482;-78
2022/12/24 12:10:05;;;;;;;11.40;3.58;;;16.60;99.90;;;;;;933631;150;27511;-79
2022/12/24 12:12:31;;;;;;;7.03;2.70;;;16.70;99.90;;;;;;932547;149;27337;-79
2022/12/24 12:15:16;;;;;;;11.03;3.90;;;16.80;99.70;;;;;;945398;149;27344;-79
2022/12/24 12:18:01;;;;;;;11.05;3.52;;;16.80;99.20;;;;;;935633;150;27429;-80
2022/12/24 12:20:34;;;;;;;11.45;3.37;;;16.80;97.50;;;;;;935061;150;27363;-79
2022/12/24 12:23:18;;;;;;;9.30;4.05;;;16.80;97.60;;;;;;933806;150;27434;-78
2022/12/24 12:25:54;;;;;;;9.78;3.33;;;16.80;97.10;;;;;;936191;150;27364;-78
2022/12/24 12:28:21;;;;;;;7.70;4.35;;;16.80;96.90;;;;;;933613;150;27341;-78
2022/12/24 12:30:47;;;;;;;7.65;3.25;;;16.70;96.70;;;;;;935693;150;27367;-78
2022/12/24 12:33:20;;;;;;;13.20;3.37;;;16.60;96.70;;;;;;934057;150;27407;-78
2022/12/24 12:35:46;;;;;;;9.03;3.55;;;16.60;97.20;;;;;;909790;150;27435;-78
2022/12/24 12:38:13;;;;;;;8.70;3.10;;;16.50;97.30;;;;;;933403;150;28334;-78
2022/12/24 12:40:58;;;;;;;9.83;3.25;;;16.50;97.10;;;;;;933727;150;27399;-78
2022/12/24 12:43:46;;;;;;;8.90;3.52;;;16.40;97.50;;;;;;934125;150;27336;-78
2022/12/24 12:46:34;;;;;;;7.12;3.50;;;16.30;97.50;;;;;;928295;151;27453;-79
2022/12/24 12:49:16;;;;;;;12.35;3.50;;;16.30;97.50;;;;;;944929;149;27383;-79
2022/12/24 12:51:48;;;;;;;10.28;3.08;;;16.20;97.70;;;;;;942663;149;27349;-79
2022/12/24 12:54:42;;;;;;;7.85;2.92;;;16.10;98.00;;;;;;944327;149;27909;-79
2022/12/24 12:57:08;;;;;;;11.73;2.87;;;16.10;98.30;;;;;;935422;150;27318;-78
2022/12/24 12:59:41;;;;;;;9.93;3.00;;;16.10;98.20;;;;;;933389;150;27317;-79
2022/12/24 13:02:25;;;;;;;8.98;3.15;;;16.00;97.80;;;;;;934682;150;27334;-78